sensor_id;sensor_type;location;lat;lon;timestamp;temperature;humidity
15821;DHT22;8011;51.650;7.240;2022-07-29T03:03:04;17.70;99.90
15821;DHT22;8011;51.650;7.240;2022-07-29T03:05:32;17.70;99.90
15821;DHT22;8011;51.650;7.240;2022-07-29T03:08:02;17.70;99.90
15821;DHT22;8011;51.650;7.240;2022-07-29T03:10:29;17.70;99.90
15821;DHT22;8011;51.650;7.240;2022-07-29T03:12:56;17.70;99.90
15821;DHT22;8011;51.650;7.240;2022-07-29T03:15:22;17.70;99.90
15821;DHT22;8011;51.650;7.240;2022-07-29T03:17:49;17.70;99.90
15821;DHT22;8011;51.650;7.240;2022-07-29T03:20:16;17.70;99.90
15821;DHT22;8011;51.650;7.240;2022-07-29T03:22:42;17.70;99.90
15821;DHT22;8011;51.650;7.240;2022-07-29T03:25:16;17.70;99.90
15821;DHT22;8011;51.650;7.240;2022-07-29T03:27:42;17.70;99.90
15821;DHT22;8011;51.650;7.240;2022-07-29T03:30:09;17.70;99.90
15821;DHT22;8011;51.650;7.240;2022-07-29T03:32:35;17.60;99.90
15821;DHT22;8011;51.650;7.240;2022-07-29T03:35:02;17.70;99.90
15821;DHT22;8011;51.650;7.240;2022-07-29T03:37:28;17.70;99.90
15821;DHT22;8011;51.650;7.240;2022-07-29T03:39:57;17.70;99.90
15821;DHT22;8011;51.650;7.240;2022-07-29T03:42:30;17.70;99.90
15821;DHT22;8011;51.650;7.240;2022-07-29T03:44:57;17.60;99.90
15821;DHT22;8011;51.650;7.240;2022-07-29T03:47:27;17.60;99.90
15821;DHT22;8011;51.650;7.240;2022-07-29T03:49:59;17.60;99.90
15821;DHT22;8011;51.650;7.240;2022-07-29T03:52:25;17.60;99.90
15821;DHT22;8011;51.650;7.240;2022-07-29T03:54:52;17.50;99.90
15821;DHT22;8011;51.650;7.240;2022-07-29T03:57:20;17.50;99.90
15821;DHT22;8011;51.650;7.240;2022-07-29T03:59:50;17.50;99.90
15821;DHT22;8011;51.650;7.240;2022-07-29T04:02:16;17.50;99.90
15821;DHT22;8011;51.650;7.240;2022-07-29T04:04:42;17.40;99.90
15821;DHT22;8011;51.650;7.240;2022-07-29T04:07:12;17.30;99.90
15821;DHT22;8011;51.650;7.240;2022-07-29T04:09:41;17.30;99.90
15821;DHT22;8011;51.650;7.240;2022-07-29T04:12:07;17.30;99.90
15821;DHT22;8011;51.650;7.240;2022-07-29T04:14:34;17.10;99.90
15821;DHT22;8011;51.650;7.240;2022-07-29T04:17:01;17.10;99.90
15821;DHT22;8011;51.650;7.240;2022-07-29T04:19:27;17.20;99.90
15821;DHT22;8011;51.650;7.240;2022-07-29T04:21:53;17.20;99.90
15821;DHT22;8011;51.650;7.240;2022-07-29T04:24:18;17.20;99.90
15821;DHT22;8011;51.650;7.240;2022-07-29T04:26:46;17.20;99.90
15821;DHT22;8011;51.650;7.240;2022-07-29T04:29:11;17.10;99.90
15821;DHT22;8011;51.650;7.240;2022-07-29T04:31:39;17.10;99.90
15821;DHT22;8011;51.650;7.240;2022-07-29T04:34:05;17.10;99.90
15821;DHT22;8011;51.650;7.240;2022-07-29T04:36:31;17.10;99.90
15821;DHT22;8011;51.650;7.240;2022-07-29T04:38:56;17.10;99.90
15821;DHT22;8011;51.650;7.240;2022-07-29T04:41:22;17.10;99.90
15821;DHT22;8011;51.650;7.240;2022-07-29T04:43:48;17.10;99.90
15821;DHT22;8011;51.650;7.240;2022-07-29T04:46:14;17.10;99.90
15821;DHT22;8011;51.650;7.240;2022-07-29T04:48:39;17.20;99.90
15821;DHT22;8011;51.650;7.240;2022-07-29T04:51:05;17.20;99.90
15821;DHT22;8011;51.650;7.240;2022-07-29T04:53:31;17.20;99.90
15821;DHT22;8011;51.650;7.240;2022-07-29T04:55:56;17.20;99.90
15821;DHT22;8011;51.650;7.240;2022-07-29T04:58:22;17.10;99.90
15821;DHT22;8011;51.650;7.240;2022-07-29T05:00:49;17.10;99.90
15821;DHT22;8011;51.650;7.240;2022-07-29T05:03:15;17.10;99.90
15821;DHT22;8011;51.650;7.240;2022-07-29T05:05:41;17.00;99.90
15821;DHT22;8011;51.650;7.240;2022-07-29T05:08:07;16.90;99.90
15821;DHT22;8011;51.650;7.240;2022-07-29T05:10:34;16.80;99.90
15821;DHT22;8011;51.650;7.240;2022-07-29T05:13:04;16.60;99.90
15821;DHT22;8011;51.650;7.240;2022-07-29T05:15:31;16.50;99.90
15821;DHT22;8011;51.650;7.240;2022-07-29T05:17:56;16.30;99.90
15821;DHT22;8011;51.650;7.240;2022-07-29T05:20:22;16.30;99.90
15821;DHT22;8011;51.650;7.240;2022-07-29T05:22:52;16.30;99.90
15821;DHT22;8011;51.650;7.240;2022-07-29T05:25:17;16.30;99.90
15821;DHT22;8011;51.650;7.240;2022-07-29T05:27:43;16.30;99.90
15821;DHT22;8011;51.650;7.240;2022-07-29T05:30:09;16.20;99.90
15821;DHT22;8011;51.650;7.240;2022-07-29T05:32:35;16.20;99.90
15821;DHT22;8011;51.650;7.240;2022-07-29T05:35:00;16.00;99.90
15821;DHT22;8011;51.650;7.240;2022-07-29T05:37:26;15.90;99.90
15821;DHT22;8011;51.650;7.240;2022-07-29T05:39:52;15.80;99.90
15821;DHT22;8011;51.650;7.240;2022-07-29T05:42:17;15.80;99.90
15821;DHT22;8011;51.650;7.240;2022-07-29T05:44:43;15.80;99.90
15821;DHT22;8011;51.650;7.240;2022-07-29T05:47:09;15.70;99.90
15821;DHT22;8011;51.650;7.240;2022-07-29T05:49:34;15.70;99.90
15821;DHT22;8011;51.650;7.240;2022-07-29T05:52:00;15.60;99.90
15821;DHT22;8011;51.650;7.240;2022-07-29T05:54:26;15.60;99.90
15821;DHT22;8011;51.650;7.240;2022-07-29T05:56:51;15.50;99.90
15821;DHT22;8011;51.650;7.240;2022-07-29T05:59:17;15.50;99.90
15821;DHT22;8011;51.650;7.240;2022-07-29T06:01:43;15.60;99.90
15821;DHT22;8011;51.650;7.240;2022-07-29T06:04:08;15.50;99.90
15821;DHT22;8011;51.650;7.240;2022-07-29T06:06:34;15.50;99.90
15821;DHT22;8011;51.650;7.240;2022-07-29T06:09:01;15.70;99.90
15821;DHT22;8011;51.650;7.240;2022-07-29T06:11:27;15.80;99.90
15821;DHT22;8011;51.650;7.240;2022-07-29T06:13:52;15.80;99.90
15821;DHT22;8011;51.650;7.240;2022-07-29T06:16:19;15.80;99.90
15821;DHT22;8011;51.650;7.240;2022-07-29T06:18:44;15.70;99.90
15821;DHT22;8011;51.650;7.240;2022-07-29T06:21:11;15.80;99.90
15821;DHT22;8011;51.650;7.240;2022-07-29T06:23:39;15.80;99.90
15821;DHT22;8011;51.650;7.240;2022-07-29T06:26:06;15.90;99.90
15821;DHT22;8011;51.650;7.240;2022-07-29T06:28:32;15.90;99.90
15821;DHT22;8011;51.650;7.240;2022-07-29T06:30:58;16.00;99.90
15821;DHT22;8011;51.650;7.240;2022-07-29T06:33:24;16.00;99.90
15821;DHT22;8011;51.650;7.240;2022-07-29T06:35:49;16.00;99.90
15821;DHT22;8011;51.650;7.240;2022-07-29T06:38:15;16.10;99.90
15821;DHT22;8011;51.650;7.240;2022-07-29T06:40:43;16.10;99.90
15821;DHT22;8011;51.650;7.240;2022-07-29T06:43:32;16.10;99.90
15821;DHT22;8011;51.650;7.240;2022-07-29T06:46:04;16.10;99.90
15821;DHT22;8011;51.650;7.240;2022-07-29T06:48:30;16.10;99.90
15821;DHT22;8011;51.650;7.240;2022-07-29T06:50:56;16.10;99.90
15821;DHT22;8011;51.650;7.240;2022-07-29T06:53:22;16.20;99.90
15821;DHT22;8011;51.650;7.240;2022-07-29T06:55:48;16.10;99.90
15821;DHT22;8011;51.650;7.240;2022-07-29T06:58:14;16.20;99.90
15821;DHT22;8011;51.650;7.240;2022-07-29T07:00:41;16.20;99.90
15821;DHT22;8011;51.650;7.240;2022-07-29T07:03:07;16.20;99.90
15821;DHT22;8011;51.650;7.240;2022-07-29T07:05:33;16.30;99.90
15821;DHT22;8011;51.650;7.240;2022-07-29T07:07:59;16.30;99.90
15821;DHT22;8011;51.650;7.240;2022-07-29T07:10:24;16.30;99.90
15821;DHT22;8011;51.650;7.240;2022-07-29T07:12:50;16.30;99.90
15821;DHT22;8011;51.650;7.240;2022-07-29T07:15:16;16.40;99.90
15821;DHT22;8011;51.650;7.240;2022-07-29T07:17:42;16.40;99.90
15821;DHT22;8011;51.650;7.240;2022-07-29T07:20:08;16.40;99.90
15821;DHT22;8011;51.650;7.240;2022-07-29T07:22:34;16.40;99.90
15821;DHT22;8011;51.650;7.240;2022-07-29T07:24:59;16.40;99.90
15821;DHT22;8011;51.650;7.240;2022-07-29T07:27:25;16.40;99.90
15821;DHT22;8011;51.650;7.240;2022-07-29T07:29:52;16.50;99.90
15821;DHT22;8011;51.650;7.240;2022-07-29T07:32:18;16.50;99.90
15821;DHT22;8011;51.650;7.240;2022-07-29T07:34:44;16.50;99.90
15821;DHT22;8011;51.650;7.240;2022-07-29T07:37:10;16.50;99.90
15821;DHT22;8011;51.650;7.240;2022-07-29T07:39:36;16.50;99.90
15821;DHT22;8011;51.650;7.240;2022-07-29T07:42:01;16.60;99.90
15821;DHT22;8011;51.650;7.240;2022-07-29T07:44:27;16.60;99.90
15821;DHT22;8011;51.650;7.240;2022-07-29T07:46:53;16.60;99.90
15821;DHT22;8011;51.650;7.240;2022-07-29T07:49:18;16.50;99.90
15821;DHT22;8011;51.650;7.240;2022-07-29T07:51:44;16.50;99.90
15821;DHT22;8011;51.650;7.240;2022-07-29T07:54:10;16.60;99.90
15821;DHT22;8011;51.650;7.240;2022-07-29T07:56:36;16.60;99.90
15821;DHT22;8011;51.650;7.240;2022-07-29T07:59:02;16.70;99.90
15821;DHT22;8011;51.650;7.240;2022-07-29T08:01:28;16.70;99.90
15821;DHT22;8011;51.650;7.240;2022-07-29T08:03:54;16.70;99.90
15821;DHT22;8011;51.650;7.240;2022-07-29T08:06:19;16.70;99.90
15821;DHT22;8011;51.650;7.240;2022-07-29T08:08:45;16.80;99.90
15821;DHT22;8011;51.650;7.240;2022-07-29T08:11:11;16.80;99.90
15821;DHT22;8011;51.650;7.240;2022-07-29T08:13:37;16.90;99.90
15821;DHT22;8011;51.650;7.240;2022-07-29T08:16:04;17.00;99.90
15821;DHT22;8011;51.650;7.240;2022-07-29T08:18:41;17.10;99.90
15821;DHT22;8011;51.650;7.240;2022-07-29T08:21:07;17.10;99.90
15821;DHT22;8011;51.650;7.240;2022-07-29T08:23:33;17.20;99.90
15821;DHT22;8011;51.650;7.240;2022-07-29T08:26:08;17.30;99.90
15821;DHT22;8011;51.650;7.240;2022-07-29T08:28:40;17.40;99.90
15821;DHT22;8011;51.650;7.240;2022-07-29T08:31:06;17.50;99.90
15821;DHT22;8011;51.650;7.240;2022-07-29T08:33:33;17.60;99.90
15821;DHT22;8011;51.650;7.240;2022-07-29T08:35:59;17.70;99.90
15821;DHT22;8011;51.650;7.240;2022-07-29T08:38:24;17.90;99.90
15821;DHT22;8011;51.650;7.240;2022-07-29T08:40:52;17.90;99.90
15821;DHT22;8011;51.650;7.240;2022-07-29T08:43:18;18.00;99.90
15821;DHT22;8011;51.650;7.240;2022-07-29T08:45:49;18.00;99.90
15821;DHT22;8011;51.650;7.240;2022-07-29T08:48:20;18.10;99.90
15821;DHT22;8011;51.650;7.240;2022-07-29T08:50:47;18.20;99.90
15821;DHT22;8011;51.650;7.240;2022-07-29T08:53:16;18.20;99.90
15821;DHT22;8011;51.650;7.240;2022-07-29T08:55:47;18.20;99.90
15821;DHT22;8011;51.650;7.240;2022-07-29T08:58:14;18.20;99.90
15821;DHT22;8011;51.650;7.240;2022-07-29T09:00:44;18.20;99.90
15821;DHT22;8011;51.650;7.240;2022-07-29T09:03:12;18.20;99.90
15821;DHT22;8011;51.650;7.240;2022-07-29T09:05:42;18.20;99.90
15821;DHT22;8011;51.650;7.240;2022-07-29T09:08:17;18.10;99.90
15821;DHT22;8011;51.650;7.240;2022-07-29T09:10:44;18.10;99.90
15821;DHT22;8011;51.650;7.240;2022-07-29T09:13:10;18.10;99.90
15821;DHT22;8011;51.650;7.240;2022-07-29T09:15:35;18.10;99.90
15821;DHT22;8011;51.650;7.240;2022-07-29T09:18:01;18.10;99.90
15821;DHT22;8011;51.650;7.240;2022-07-29T09:20:27;18.20;99.90
15821;DHT22;8011;51.650;7.240;2022-07-29T09:23:13;18.20;99.90
15821;DHT22;8011;51.650;7.240;2022-07-29T09:25:40;18.20;99.90
15821;DHT22;8011;51.650;7.240;2022-07-29T09:28:08;18.20;99.90
15821;DHT22;8011;51.650;7.240;2022-07-29T09:30:34;18.20;99.90
15821;DHT22;8011;51.650;7.240;2022-07-29T09:33:02;18.20;99.90
15821;DHT22;8011;51.650;7.240;2022-07-29T09:35:29;18.40;99.90
15821;DHT22;8011;51.650;7.240;2022-07-29T09:37:55;18.30;99.90
15821;DHT22;8011;51.650;7.240;2022-07-29T09:40:26;18.30;99.90
15821;DHT22;8011;51.650;7.240;2022-07-29T09:42:53;18.20;99.90
15821;DHT22;8011;51.650;7.240;2022-07-29T09:45:34;18.30;99.90
15821;DHT22;8011;51.650;7.240;2022-07-29T09:48:19;18.20;99.90
15821;DHT22;8011;51.650;7.240;2022-07-29T09:50:46;18.30;99.90
15821;DHT22;8011;51.650;7.240;2022-07-29T09:53:35;18.30;99.90
15821;DHT22;8011;51.650;7.240;2022-07-29T09:56:02;18.30;99.90
15821;DHT22;8011;51.650;7.240;2022-07-29T09:58:28;18.30;99.90
15821;DHT22;8011;51.650;7.240;2022-07-29T10:00:54;18.30;99.90
15821;DHT22;8011;51.650;7.240;2022-07-29T10:03:21;18.30;99.90
15821;DHT22;8011;51.650;7.240;2022-07-29T10:06:12;18.30;99.90
15821;DHT22;8011;51.650;7.240;2022-07-29T10:08:38;18.40;99.90
15821;DHT22;8011;51.650;7.240;2022-07-29T10:11:14;18.40;99.90
15821;DHT22;8011;51.650;7.240;2022-07-29T10:13:41;18.40;99.90
15821;DHT22;8011;51.650;7.240;2022-07-29T10:16:07;18.30;99.90
15821;DHT22;8011;51.650;7.240;2022-07-29T10:18:34;18.20;99.90
15821;DHT22;8011;51.650;7.240;2022-07-29T10:21:00;18.20;99.90
15821;DHT22;8011;51.650;7.240;2022-07-29T10:23:28;18.20;99.90
15821;DHT22;8011;51.650;7.240;2022-07-29T10:25:54;18.10;99.90
15821;DHT22;8011;51.650;7.240;2022-07-29T10:28:23;18.00;99.90
15821;DHT22;8011;51.650;7.240;2022-07-29T10:30:51;18.00;99.90
15821;DHT22;8011;51.650;7.240;2022-07-29T10:33:45;18.00;99.90
15821;DHT22;8011;51.650;7.240;2022-07-29T10:46:27;18.00;99.90
15821;DHT22;8011;51.650;7.240;2022-07-29T11:02:40;18.20;99.90
15821;DHT22;8011;51.650;7.240;2022-07-29T11:07:38;18.20;99.90
15821;DHT22;8011;51.650;7.240;2022-07-29T11:15:05;18.20;99.90
15821;DHT22;8011;51.650;7.240;2022-07-29T11:20:42;18.10;99.90
15821;DHT22;8011;51.650;7.240;2022-07-29T11:23:30;18.10;99.90
15821;DHT22;8011;51.650;7.240;2022-07-29T11:26:14;18.20;99.90
15821;DHT22;8011;51.650;7.240;2022-07-29T11:29:20;18.20;99.90
15821;DHT22;8011;51.650;7.240;2022-07-29T11:31:51;18.20;99.90
15821;DHT22;8011;51.650;7.240;2022-07-29T11:34:32;18.10;99.90
15821;DHT22;8011;51.650;7.240;2022-07-29T11:39:37;18.00;99.90
15821;DHT22;8011;51.650;7.240;2022-07-29T11:47:27;18.10;99.90
15821;DHT22;8011;51.650;7.240;2022-07-29T11:49:57;18.20;99.90
15821;DHT22;8011;51.650;7.240;2022-07-29T11:52:24;18.20;99.90
15821;DHT22;8011;51.650;7.240;2022-07-29T11:54:58;18.30;99.90
15821;DHT22;8011;51.650;7.240;2022-07-29T11:57:28;18.30;99.90
15821;DHT22;8011;51.650;7.240;2022-07-29T11:59:55;18.20;99.90
15821;DHT22;8011;51.650;7.240;2022-07-29T12:02:23;18.30;99.90
15821;DHT22;8011;51.650;7.240;2022-07-29T12:04:49;18.30;99.90
15821;DHT22;8011;51.650;7.240;2022-07-29T12:07:15;18.40;99.90
15821;DHT22;8011;51.650;7.240;2022-07-29T12:09:52;18.50;99.90
15821;DHT22;8011;51.650;7.240;2022-07-29T12:12:18;18.50;99.90
15821;DHT22;8011;51.650;7.240;2022-07-29T12:14:44;18.60;99.90
15821;DHT22;8011;51.650;7.240;2022-07-29T12:17:29;18.70;99.90
15821;DHT22;8011;51.650;7.240;2022-07-29T12:19:57;18.90;99.90
15821;DHT22;8011;51.650;7.240;2022-07-29T12:22:38;19.00;99.90
15821;DHT22;8011;51.650;7.240;2022-07-29T12:25:14;19.10;99.90
15821;DHT22;8011;51.650;7.240;2022-07-29T12:27:42;19.20;99.90
15821;DHT22;8011;51.650;7.240;2022-07-29T12:30:11;19.30;99.90
15821;DHT22;8011;51.650;7.240;2022-07-29T12:32:45;19.40;99.90
15821;DHT22;8011;51.650;7.240;2022-07-29T12:37:40;19.50;99.90
15821;DHT22;8011;51.650;7.240;2022-07-29T12:40:07;19.60;99.90
15821;DHT22;8011;51.650;7.240;2022-07-29T12:42:34;19.70;99.90
15821;DHT22;8011;51.650;7.240;2022-07-29T12:45:00;19.70;99.90
15821;DHT22;8011;51.650;7.240;2022-07-29T12:47:27;19.80;99.90
15821;DHT22;8011;51.650;7.240;2022-07-29T12:50:12;19.90;99.90
15821;DHT22;8011;51.650;7.240;2022-07-29T12:52:44;20.00;99.90
15821;DHT22;8011;51.650;7.240;2022-07-29T12:55:09;20.00;99.90
15821;DHT22;8011;51.650;7.240;2022-07-29T12:57:49;20.10;99.90
15821;DHT22;8011;51.650;7.240;2022-07-29T13:00:23;20.20;99.90
15821;DHT22;8011;51.650;7.240;2022-07-29T13:02:59;20.20;99.90
15821;DHT22;8011;51.650;7.240;2022-07-29T13:05:43;20.30;99.90
15821;DHT22;8011;51.650;7.240;2022-07-29T13:08:16;20.30;99.90
15821;DHT22;8011;51.650;7.240;2022-07-29T13:10:43;20.30;99.90
15821;DHT22;8011;51.650;7.240;2022-07-29T13:13:11;20.40;99.90
15821;DHT22;8011;51.650;7.240;2022-07-29T13:15:39;20.40;99.90
15821;DHT22;8011;51.650;7.240;2022-07-29T13:18:26;20.50;99.90
15821;DHT22;8011;51.650;7.240;2022-07-29T13:20:53;20.50;99.90
15821;DHT22;8011;51.650;7.240;2022-07-29T13:23:22;20.60;99.90
15821;DHT22;8011;51.650;7.240;2022-07-29T13:25:48;20.70;99.90
15821;DHT22;8011;51.650;7.240;2022-07-29T13:28:13;20.80;99.90
15821;DHT22;8011;51.650;7.240;2022-07-29T13:30:40;20.90;99.90
15821;DHT22;8011;51.650;7.240;2022-07-29T13:33:06;21.00;99.90
15821;DHT22;8011;51.650;7.240;2022-07-29T13:35:32;21.10;99.90
15821;DHT22;8011;51.650;7.240;2022-07-29T13:37:58;21.20;99.90
15821;DHT22;8011;51.650;7.240;2022-07-29T13:40:23;21.20;99.90
15821;DHT22;8011;51.650;7.240;2022-07-29T13:42:49;21.30;99.90
15821;DHT22;8011;51.650;7.240;2022-07-29T13:45:16;21.30;99.90
15821;DHT22;8011;51.650;7.240;2022-07-29T13:47:41;21.40;99.90
15821;DHT22;8011;51.650;7.240;2022-07-29T13:50:08;21.40;99.90
15821;DHT22;8011;51.650;7.240;2022-07-29T13:52:35;21.50;99.90
15821;DHT22;8011;51.650;7.240;2022-07-29T13:55:02;21.60;99.90
15821;DHT22;8011;51.650;7.240;2022-07-29T13:57:28;21.60;99.90
15821;DHT22;8011;51.650;7.240;2022-07-29T13:59:54;21.70;99.90
15821;DHT22;8011;51.650;7.240;2022-07-29T14:02:20;21.70;99.90
15821;DHT22;8011;51.650;7.240;2022-07-29T14:04:46;21.80;99.90
15821;DHT22;8011;51.650;7.240;2022-07-29T14:07:11;21.80;99.90
15821;DHT22;8011;51.650;7.240;2022-07-29T14:09:38;21.80;99.90
15821;DHT22;8011;51.650;7.240;2022-07-29T14:12:03;21.90;99.90
15821;DHT22;8011;51.650;7.240;2022-07-29T14:14:30;22.00;99.90
15821;DHT22;8011;51.650;7.240;2022-07-29T14:16:58;22.00;99.90
15821;DHT22;8011;51.650;7.240;2022-07-29T14:19:23;22.00;99.90
15821;DHT22;8011;51.650;7.240;2022-07-29T14:21:49;22.10;99.90
15821;DHT22;8011;51.650;7.240;2022-07-29T14:24:15;22.20;99.90
15821;DHT22;8011;51.650;7.240;2022-07-29T14:26:41;22.20;99.90
15821;DHT22;8011;51.650;7.240;2022-07-29T14:29:06;22.20;99.90
15821;DHT22;8011;51.650;7.240;2022-07-29T14:31:32;22.30;99.90
15821;DHT22;8011;51.650;7.240;2022-07-29T14:33:58;22.30;99.90
15821;DHT22;8011;51.650;7.240;2022-07-29T14:36:23;22.40;99.90
15821;DHT22;8011;51.650;7.240;2022-07-29T14:38:52;22.50;99.90
15821;DHT22;8011;51.650;7.240;2022-07-29T14:41:18;22.60;99.90
15821;DHT22;8011;51.650;7.240;2022-07-29T14:43:43;22.60;99.90
15821;DHT22;8011;51.650;7.240;2022-07-29T14:46:09;22.70;99.90
15821;DHT22;8011;51.650;7.240;2022-07-29T14:48:34;22.70;99.90
15821;DHT22;8011;51.650;7.240;2022-07-29T14:51:00;22.80;99.90
15821;DHT22;8011;51.650;7.240;2022-07-29T14:53:26;22.80;99.90
15821;DHT22;8011;51.650;7.240;2022-07-29T14:55:51;22.80;99.90
15821;DHT22;8011;51.650;7.240;2022-07-29T14:58:17;22.80;99.90
15821;DHT22;8011;51.650;7.240;2022-07-29T15:00:43;22.80;99.90
15821;DHT22;8011;51.650;7.240;2022-07-29T15:03:09;22.90;99.90
15821;DHT22;8011;51.650;7.240;2022-07-29T15:05:35;22.90;99.90
15821;DHT22;8011;51.650;7.240;2022-07-29T15:08:02;22.90;99.90
15821;DHT22;8011;51.650;7.240;2022-07-29T15:10:28;23.00;99.90
15821;DHT22;8011;51.650;7.240;2022-07-29T15:12:54;23.00;99.90
15821;DHT22;8011;51.650;7.240;2022-07-29T15:15:21;23.00;99.90
15821;DHT22;8011;51.650;7.240;2022-07-29T15:17:47;23.10;99.90
15821;DHT22;8011;51.650;7.240;2022-07-29T15:20:12;23.10;99.90
15821;DHT22;8011;51.650;7.240;2022-07-29T15:22:39;23.10;99.90
15821;DHT22;8011;51.650;7.240;2022-07-29T15:25:06;23.10;99.90
15821;DHT22;8011;51.650;7.240;2022-07-29T15:27:32;23.10;99.90
15821;DHT22;8011;51.650;7.240;2022-07-29T15:29:58;23.20;99.90
15821;DHT22;8011;51.650;7.240;2022-07-29T15:32:24;23.10;99.90
15821;DHT22;8011;51.650;7.240;2022-07-29T15:34:50;23.10;99.90
15821;DHT22;8011;51.650;7.240;2022-07-29T15:37:16;23.20;99.90
15821;DHT22;8011;51.650;7.240;2022-07-29T15:39:41;23.10;99.90
15821;DHT22;8011;51.650;7.240;2022-07-29T15:42:07;23.10;99.90
15821;DHT22;8011;51.650;7.240;2022-07-29T15:44:33;23.20;99.90
15821;DHT22;8011;51.650;7.240;2022-07-29T15:46:59;23.20;99.90
15821;DHT22;8011;51.650;7.240;2022-07-29T15:49:35;23.20;99.90
15821;DHT22;8011;51.650;7.240;2022-07-29T15:52:03;23.30;99.90
15821;DHT22;8011;51.650;7.240;2022-07-29T15:54:32;23.40;99.90
15821;DHT22;8011;51.650;7.240;2022-07-29T15:56:58;23.40;99.90
15821;DHT22;8011;51.650;7.240;2022-07-29T15:59:23;23.40;99.90
15821;DHT22;8011;51.650;7.240;2022-07-29T16:01:49;23.40;99.90
15821;DHT22;8011;51.650;7.240;2022-07-29T16:04:15;23.50;99.90
15821;DHT22;8011;51.650;7.240;2022-07-29T16:06:42;23.50;99.90
15821;DHT22;8011;51.650;7.240;2022-07-29T16:09:08;23.50;99.90
15821;DHT22;8011;51.650;7.240;2022-07-29T16:11:33;23.50;99.90
15821;DHT22;8011;51.650;7.240;2022-07-29T16:13:59;23.40;99.90
15821;DHT22;8011;51.650;7.240;2022-07-29T16:16:25;23.30;99.90
15821;DHT22;8011;51.650;7.240;2022-07-29T16:18:51;23.30;99.90
15821;DHT22;8011;51.650;7.240;2022-07-29T16:21:16;23.30;99.90
15821;DHT22;8011;51.650;7.240;2022-07-29T16:23:42;23.30;99.90
15821;DHT22;8011;51.650;7.240;2022-07-29T16:26:08;23.30;99.90
15821;DHT22;8011;51.650;7.240;2022-07-29T16:28:33;23.30;99.90
15821;DHT22;8011;51.650;7.240;2022-07-29T16:30:59;23.30;99.90
15821;DHT22;8011;51.650;7.240;2022-07-29T16:33:25;23.40;99.90
15821;DHT22;8011;51.650;7.240;2022-07-29T16:35:54;23.30;99.90
15821;DHT22;8011;51.650;7.240;2022-07-29T16:38:20;23.40;99.90
15821;DHT22;8011;51.650;7.240;2022-07-29T16:40:46;23.30;99.90
15821;DHT22;8011;51.650;7.240;2022-07-29T16:43:12;23.30;99.90
15821;DHT22;8011;51.650;7.240;2022-07-29T16:45:37;23.30;99.90
15821;DHT22;8011;51.650;7.240;2022-07-29T16:48:03;23.20;99.90
15821;DHT22;8011;51.650;7.240;2022-07-29T16:50:30;23.20;99.90
15821;DHT22;8011;51.650;7.240;2022-07-29T16:52:56;23.20;99.90
15821;DHT22;8011;51.650;7.240;2022-07-29T16:55:23;23.20;99.90
15821;DHT22;8011;51.650;7.240;2022-07-29T16:57:49;23.20;99.90
15821;DHT22;8011;51.650;7.240;2022-07-29T17:00:18;23.10;99.90
15821;DHT22;8011;51.650;7.240;2022-07-29T17:02:44;23.20;99.90
15821;DHT22;8011;51.650;7.240;2022-07-29T17:05:11;23.20;99.90
15821;DHT22;8011;51.650;7.240;2022-07-29T17:07:37;23.00;99.90
15821;DHT22;8011;51.650;7.240;2022-07-29T17:10:04;23.00;99.90
15821;DHT22;8011;51.650;7.240;2022-07-29T17:12:32;23.10;99.90
15821;DHT22;8011;51.650;7.240;2022-07-29T17:14:59;23.10;99.90
15821;DHT22;8011;51.650;7.240;2022-07-29T17:17:25;23.10;99.90
15821;DHT22;8011;51.650;7.240;2022-07-29T17:19:51;23.10;99.90
15821;DHT22;8011;51.650;7.240;2022-07-29T17:22:16;23.00;99.90
15821;DHT22;8011;51.650;7.240;2022-07-29T17:24:42;23.00;99.90
15821;DHT22;8011;51.650;7.240;2022-07-29T17:27:09;23.10;99.90
15821;DHT22;8011;51.650;7.240;2022-07-29T17:29:34;23.10;99.90
15821;DHT22;8011;51.650;7.240;2022-07-29T17:32:00;23.10;99.90
15821;DHT22;8011;51.650;7.240;2022-07-29T17:34:26;23.10;99.90
15821;DHT22;8011;51.650;7.240;2022-07-29T17:36:52;23.10;99.90
15821;DHT22;8011;51.650;7.240;2022-07-29T17:39:17;23.10;99.90
15821;DHT22;8011;51.650;7.240;2022-07-29T17:41:43;23.10;99.90
15821;DHT22;8011;51.650;7.240;2022-07-29T17:44:11;23.10;99.90
15821;DHT22;8011;51.650;7.240;2022-07-29T17:46:37;23.10;99.90
15821;DHT22;8011;51.650;7.240;2022-07-29T17:49:04;23.10;99.90
15821;DHT22;8011;51.650;7.240;2022-07-29T17:51:30;23.10;99.90
15821;DHT22;8011;51.650;7.240;2022-07-29T17:53:56;23.00;99.90
15821;DHT22;8011;51.650;7.240;2022-07-29T17:56:22;23.10;99.90
15821;DHT22;8011;51.650;7.240;2022-07-29T17:58:48;23.10;99.90
15821;DHT22;8011;51.650;7.240;2022-07-29T18:01:15;23.10;99.90
15821;DHT22;8011;51.650;7.240;2022-07-29T18:03:41;23.10;99.90
15821;DHT22;8011;51.650;7.240;2022-07-29T18:06:07;23.00;99.90
15821;DHT22;8011;51.650;7.240;2022-07-29T18:08:35;23.00;99.90
15821;DHT22;8011;51.650;7.240;2022-07-29T18:11:01;23.00;99.90
15821;DHT22;8011;51.650;7.240;2022-07-29T18:13:27;23.00;99.90
15821;DHT22;8011;51.650;7.240;2022-07-29T18:15:53;23.00;99.90
15821;DHT22;8011;51.650;7.240;2022-07-29T18:18:18;23.00;99.90
15821;DHT22;8011;51.650;7.240;2022-07-29T18:20:44;22.90;99.90
15821;DHT22;8011;51.650;7.240;2022-07-29T18:23:11;22.90;99.90
15821;DHT22;8011;51.650;7.240;2022-07-29T18:25:37;22.80;99.90
15821;DHT22;8011;51.650;7.240;2022-07-29T18:28:04;22.80;99.90
15821;DHT22;8011;51.650;7.240;2022-07-29T18:30:29;22.80;99.90
15821;DHT22;8011;51.650;7.240;2022-07-29T18:32:58;22.80;99.90
15821;DHT22;8011;51.650;7.240;2022-07-29T18:35:23;22.80;99.90
15821;DHT22;8011;51.650;7.240;2022-07-29T18:37:49;22.70;99.90
15821;DHT22;8011;51.650;7.240;2022-07-29T18:40:18;22.70;99.90
15821;DHT22;8011;51.650;7.240;2022-07-29T18:42:45;22.70;99.90
15821;DHT22;8011;51.650;7.240;2022-07-29T18:45:11;22.70;99.90
15821;DHT22;8011;51.650;7.240;2022-07-29T18:47:37;22.70;99.90
15821;DHT22;8011;51.650;7.240;2022-07-29T18:50:04;22.70;99.90
15821;DHT22;8011;51.650;7.240;2022-07-29T18:52:30;22.60;99.90
15821;DHT22;8011;51.650;7.240;2022-07-29T18:54:56;22.70;99.90
15821;DHT22;8011;51.650;7.240;2022-07-29T18:57:22;22.60;99.90
15821;DHT22;8011;51.650;7.240;2022-07-29T18:59:48;22.50;99.90
15821;DHT22;8011;51.650;7.240;2022-07-29T19:02:16;22.40;99.90
15821;DHT22;8011;51.650;7.240;2022-07-29T19:04:41;22.40;99.90
15821;DHT22;8011;51.650;7.240;2022-07-29T19:07:07;22.40;99.90
15821;DHT22;8011;51.650;7.240;2022-07-29T19:09:33;22.30;99.90
15821;DHT22;8011;51.650;7.240;2022-07-29T19:11:59;22.30;99.90
15821;DHT22;8011;51.650;7.240;2022-07-29T19:14:25;22.30;99.90
15821;DHT22;8011;51.650;7.240;2022-07-29T19:16:51;22.30;99.90
15821;DHT22;8011;51.650;7.240;2022-07-29T19:19:16;22.30;99.90
15821;DHT22;8011;51.650;7.240;2022-07-29T19:21:42;22.30;99.90
15821;DHT22;8011;51.650;7.240;2022-07-29T19:24:08;22.20;99.90
15821;DHT22;8011;51.650;7.240;2022-07-29T19:26:34;22.20;99.90
15821;DHT22;8011;51.650;7.240;2022-07-29T19:29:08;22.20;99.90
15821;DHT22;8011;51.650;7.240;2022-07-29T19:31:34;22.20;99.90
15821;DHT22;8011;51.650;7.240;2022-07-29T19:33:59;22.10;99.90